createdAt,value
2023-03-26T00:01:41.645Z,98766.88
2023-03-26T00:04:09.178Z,98766.44
2023-03-26T00:06:39.978Z,98770.13
2023-03-26T00:09:13.447Z,98778.78
2023-03-26T00:11:41.688Z,98787.59
2023-03-26T00:14:14.017Z,98770.19
2023-03-26T00:16:47.615Z,98767.41
2023-03-26T00:19:16.965Z,98773.72
2023-03-26T00:21:44.657Z,98786.88
2023-03-26T00:24:16.186Z,98787.97
2023-03-26T00:26:44.848Z,98784.56
2023-03-26T00:29:14.003Z,98770.06
2023-03-26T00:31:46.523Z,98778.22
2023-03-26T00:34:15.887Z,98767.88
2023-03-26T00:36:44.072Z,98768.22
2023-03-26T00:39:11.680Z,98786.06
2023-03-26T00:41:43.263Z,98802.56
2023-03-26T00:44:11.584Z,98801.69
2023-03-26T00:46:39.316Z,98804.78
2023-03-26T00:49:10.941Z,98806.72
2023-03-26T00:51:39.351Z,98814.91
2023-03-26T00:54:08.579Z,98820.72
2023-03-26T00:56:37.088Z,98825.13
2023-03-26T00:59:05.179Z,98822.50
2023-03-26T01:01:32.965Z,98830.91
2023-03-26T01:04:31.296Z,98843.94
2023-03-26T01:07:04.220Z,98836.69
2023-03-26T01:09:37.610Z,98813.84
2023-03-26T01:12:08.216Z,98792.28
2023-03-26T01:14:38.814Z,98777.22
2023-03-26T01:17:09.275Z,98785.97
2023-03-26T01:20:13.244Z,98847.41
2023-03-26T01:22:49.785Z,98851.38
2023-03-26T01:25:17.986Z,98851.91
2023-03-26T01:27:47.416Z,98858.16
2023-03-26T01:30:43.326Z,98857.38
2023-03-26T01:33:37.072Z,98849.88
2023-03-26T01:36:30.786Z,98848.75
2023-03-26T01:39:08.075Z,98857.84
2023-03-26T01:41:58.615Z,98856.84
2023-03-26T01:44:42.887Z,98848.97
2023-03-26T01:47:11.539Z,98842.19
2023-03-26T01:49:39.028Z,98841.50
2023-03-26T01:52:15.050Z,98844.91
2023-03-26T01:54:43.065Z,98832.22
2023-03-26T01:57:42.210Z,98829.31
2023-03-26T02:00:24.639Z,98826.31
2023-03-26T02:03:33.510Z,98838.94
2023-03-26T02:06:23.717Z,98841.66
2023-03-26T02:09:04.430Z,98850.66
2023-03-26T02:11:35.309Z,98857.91
2023-03-26T02:14:06.707Z,98861.91
2023-03-26T02:16:34.291Z,98852.66
2023-03-26T02:19:02.381Z,98867.69
2023-03-26T02:21:33.970Z,98869.75
2023-03-26T02:24:04.506Z,98871.97
2023-03-26T02:26:37.784Z,98871.97
2023-03-26T02:29:14.993Z,98874.34
2023-03-26T02:31:44.972Z,98871.19
2023-03-26T02:34:12.709Z,98864.44
2023-03-26T02:36:47.258Z,98861.03
2023-03-26T02:39:14.904Z,98869.97
2023-03-26T02:41:48.741Z,98879.63
2023-03-26T02:44:16.295Z,98896.59
2023-03-26T02:46:59.044Z,98888.16
2023-03-26T02:49:45.377Z,98884.25
2023-03-26T02:52:19.142Z,98874.47
2023-03-26T02:54:50.932Z,98872.94
2023-03-26T02:57:21.199Z,98874.69
2023-03-26T03:00:14.784Z,98878.38
2023-03-26T03:02:49.042Z,98881.72
2023-03-26T03:05:43.072Z,98884.00
2023-03-26T03:08:38.088Z,98884.97
2023-03-26T03:11:22.236Z,98893.97
2023-03-26T03:13:52.370Z,98892.00
2023-03-26T03:16:23.644Z,98889.38
2023-03-26T03:18:57.816Z,98889.03
2023-03-26T03:21:31.555Z,98882.69
2023-03-26T03:24:00.129Z,98889.47
2023-03-26T03:26:30.587Z,98893.53
2023-03-26T03:29:03.457Z,98894.91
2023-03-26T03:31:31.115Z,98893.16
2023-03-26T03:34:03.700Z,98894.31
2023-03-26T03:36:38.461Z,98895.81
2023-03-26T03:39:14.956Z,98897.78
2023-03-26T03:41:43.001Z,98905.78
2023-03-26T03:44:14.234Z,98910.81
2023-03-26T03:46:41.842Z,98921.44
2023-03-26T03:49:09.300Z,98923.97
2023-03-26T03:51:38.481Z,98931.97
2023-03-26T03:54:15.187Z,98930.31
2023-03-26T03:56:47.308Z,98936.38
2023-03-26T03:59:15.528Z,98939.78
2023-03-26T04:01:46.750Z,98942.78
2023-03-26T04:04:24.798Z,98947.69
2023-03-26T04:06:58.356Z,98968.09
2023-03-26T04:09:30.783Z,98957.22
2023-03-26T04:12:02.716Z,98965.56
2023-03-26T04:14:39.267Z,98959.19
2023-03-26T04:17:16.159Z,98967.63
2023-03-26T04:19:45.675Z,98970.09
2023-03-26T04:22:15.098Z,98960.59
2023-03-26T04:24:54.760Z,98949.94
2023-03-26T04:27:32.103Z,98957.06
2023-03-26T04:30:23.283Z,98958.47
2023-03-26T04:33:06.512Z,98957.06
2023-03-26T04:35:41.698Z,98957.34
2023-03-26T04:38:12.335Z,98956.63
2023-03-26T04:40:47.699Z,98963.81
2023-03-26T04:43:42.414Z,98965.28
2023-03-26T04:46:21.947Z,98973.06
2023-03-26T04:48:55.693Z,98976.88
2023-03-26T04:51:30.355Z,98978.09
2023-03-26T04:54:02.528Z,98986.56
2023-03-26T04:57:08.272Z,98986.03
2023-03-26T04:59:58.709Z,98987.97
2023-03-26T05:02:26.687Z,98977.47
2023-03-26T05:04:57.273Z,98983.38
2023-03-26T05:07:28.453Z,98991.06
2023-03-26T05:10:03.430Z,98999.50
2023-03-26T05:12:53.014Z,99010.66
2023-03-26T05:15:30.382Z,99008.56
2023-03-26T05:17:58.097Z,99021.16
2023-03-26T05:20:39.265Z,99026.69
2023-03-26T05:23:09.010Z,99032.25
2023-03-26T05:25:38.973Z,99042.13
2023-03-26T05:28:14.153Z,99023.63
2023-03-26T05:30:54.428Z,99040.31
2023-03-26T05:33:24.542Z,99042.81
2023-03-26T05:36:13.119Z,99039.53
2023-03-26T05:38:47.689Z,99043.81
2023-03-26T05:41:19.808Z,99050.06
2023-03-26T05:43:49.083Z,99046.78
2023-03-26T05:46:22.958Z,99058.88
2023-03-26T05:48:52.087Z,99058.06
2023-03-26T05:51:20.629Z,99045.47
2023-03-26T05:53:56.853Z,99051.34
2023-03-26T05:56:33.441Z,99064.22
2023-03-26T05:59:19.569Z,99066.94
2023-03-26T06:02:05.459Z,99056.34
2023-03-26T06:04:53.213Z,99068.59
2023-03-26T06:07:49.262Z,99075.63
2023-03-26T06:10:19.525Z,99073.69
2023-03-26T06:12:47.657Z,99081.59
2023-03-26T06:15:15.624Z,99084.63
2023-03-26T06:17:58.594Z,99091.03
2023-03-26T06:20:51.606Z,99088.88
2023-03-26T06:23:29.627Z,99086.72
2023-03-26T06:26:07.898Z,99088.03
2023-03-26T06:29:04.378Z,99089.09
2023-03-26T06:32:06.169Z,99087.66
2023-03-26T06:34:45.319Z,99097.91
2023-03-26T06:37:13.489Z,99096.88
2023-03-26T06:39:42.092Z,99102.00
2023-03-26T06:43:06.474Z,99092.38
2023-03-26T06:45:42.152Z,99097.00
2023-03-26T06:48:42.792Z,99095.13
2023-03-26T06:51:13.967Z,99096.22
2023-03-26T06:54:14.100Z,99100.19
2023-03-26T06:57:04.345Z,99091.03
2023-03-26T07:00:08.684Z,99099.50
2023-03-26T07:05:48.291Z,99095.88
2023-03-26T07:08:34.550Z,99098.94
2023-03-26T07:11:22.425Z,99114.91
2023-03-26T07:14:10.230Z,99114.16
2023-03-26T07:16:49.628Z,99104.84
2023-03-26T07:19:46.101Z,99127.81
2023-03-26T07:22:22.725Z,99110.47
2023-03-26T07:25:07.019Z,99121.59
2023-03-26T07:28:13.282Z,99111.94
2023-03-26T07:31:27.167Z,99114.47
2023-03-26T07:38:31.391Z,99103.31
2023-03-26T07:41:46.519Z,99117.47
2023-03-26T07:51:07.131Z,99108.44
2023-03-26T08:20:58.413Z,99099.53
2023-03-26T08:26:59.779Z,99097.19
2023-03-26T08:30:05.257Z,99103.09
2023-03-26T08:32:33.202Z,99101.34
2023-03-26T08:35:01.219Z,99098.13
2023-03-26T08:37:29.287Z,99102.34
2023-03-26T08:39:57.156Z,99093.94
2023-03-26T08:43:28.646Z,99096.41
2023-03-26T08:46:10.386Z,99094.06
2023-03-26T08:49:33.432Z,99086.81
2023-03-26T08:52:50.478Z,99075.88
2023-03-26T08:55:47.121Z,99075.41
2023-03-26T08:58:25.613Z,99072.25
2023-03-26T09:00:56.235Z,99073.97
2023-03-26T09:03:50.600Z,99082.59
2023-03-26T09:07:01.705Z,99070.53
2023-03-26T09:09:56.800Z,99066.19
2023-03-26T09:12:55.752Z,99071.50
2023-03-26T09:16:15.602Z,99068.81
2023-03-26T09:19:10.520Z,99062.50
2023-03-26T09:22:38.520Z,99069.72
2023-03-26T09:26:02.083Z,99053.44
2023-03-26T09:28:36.476Z,99057.25
2023-03-26T09:31:25.401Z,99059.97
2023-03-26T09:34:31.496Z,99056.13
2023-03-26T09:37:29.275Z,99062.41
2023-03-26T09:40:29.462Z,99052.94
2023-03-26T09:43:20.889Z,99045.44
2023-03-26T09:46:07.467Z,99043.94
2023-03-26T09:49:21.032Z,99039.66
2023-03-26T09:51:51.911Z,99050.41
2023-03-26T09:55:02.376Z,99045.44
2023-03-26T09:58:02.458Z,99043.19
2023-03-26T10:00:53.197Z,99035.97
2023-03-26T10:03:59.079Z,99037.91
2023-03-26T10:06:41.845Z,99041.34
2023-03-26T10:09:48.350Z,99028.03
2023-03-26T10:12:37.427Z,99029.50
2023-03-26T10:15:57.258Z,99021.13
2023-03-26T10:18:56.416Z,99023.44
2023-03-26T10:21:36.810Z,99011.63
2023-03-26T10:24:28.959Z,99002.47
2023-03-26T10:27:08.442Z,99017.72
2023-03-26T10:30:10.665Z,99017.97
2023-03-26T10:33:07.281Z,99004.25
2023-03-26T10:35:56.408Z,99000.94
2023-03-26T10:38:51.292Z,98989.97
2023-03-26T10:41:59.597Z,99003.41
2023-03-26T10:45:07.706Z,98991.34
2023-03-26T10:47:59.555Z,98979.63
2023-03-26T10:51:19.267Z,98966.56
2023-03-26T10:53:58.948Z,98967.81
2023-03-26T10:56:45.380Z,98966.81
2023-03-26T10:59:16.378Z,98966.91
2023-03-26T11:02:30.028Z,98965.03
2023-03-26T11:05:16.886Z,98952.53
2023-03-26T11:08:36.664Z,98955.53
2023-03-26T11:11:19.930Z,98952.22
2023-03-26T11:14:36.332Z,98943.59
2023-03-26T11:17:44.162Z,98940.34
2023-03-26T11:20:37.971Z,98930.34
2023-03-26T11:23:37.278Z,98944.06
2023-03-26T11:26:13.589Z,98927.72
2023-03-26T11:29:40.905Z,98919.78
2023-03-26T11:32:46.962Z,98913.75
2023-03-26T11:35:51.587Z,98917.28
2023-03-26T11:47:31.807Z,98897.41
2023-03-26T11:50:02.388Z,98902.00
2023-03-26T11:52:29.917Z,98895.00
2023-03-26T11:54:58.592Z,98892.75
2023-03-26T11:57:33.659Z,98892.88
2023-03-26T12:00:17.994Z,98888.38
2023-03-26T12:02:47.853Z,98891.94
2023-03-26T12:05:27.611Z,98881.28
2023-03-26T12:08:11.318Z,98882.81
2023-03-26T12:11:03.303Z,98883.28
2023-03-26T12:13:55.571Z,98894.91
2023-03-26T12:16:23.432Z,98887.28
2023-03-26T12:19:19.713Z,98887.34
2023-03-26T12:21:53.362Z,98878.34
2023-03-26T12:24:36.114Z,98866.56
2023-03-26T12:27:25.765Z,98876.31
2023-03-26T12:30:00.305Z,98879.41
2023-03-26T12:32:45.223Z,98878.59
2023-03-26T12:35:25.715Z,98882.00
2023-03-26T12:37:54.746Z,98878.94
2023-03-26T12:40:36.760Z,98864.53
2023-03-26T12:44:54.243Z,98876.75
2023-03-26T12:47:55.628Z,98872.78
2023-03-26T12:49:23.061Z,98855.41
2023-03-26T12:51:58.879Z,98860.44
2023-03-26T12:54:48.475Z,98867.91
2023-03-26T12:57:26.607Z,98857.06
2023-03-26T13:00:09.908Z,98844.75
2023-03-26T13:02:46.583Z,98840.16
2023-03-26T13:05:22.755Z,98829.72
2023-03-26T13:08:07.024Z,98834.75
2023-03-26T13:11:11.603Z,98829.41
2023-03-26T13:14:15.937Z,98820.44
2023-03-26T13:16:52.610Z,98825.50
2023-03-26T13:19:53.694Z,98835.09
2023-03-26T13:22:49.164Z,98822.13
2023-03-26T13:25:44.635Z,98825.09
2023-03-26T13:28:37.615Z,98821.50
2023-03-26T13:31:39.208Z,98812.44
2023-03-26T13:34:49.393Z,98819.97
2023-03-26T13:37:32.979Z,98821.91
2023-03-26T13:40:37.935Z,98818.03
2023-03-26T13:43:15.509Z,98822.31
2023-03-26T13:46:05.468Z,98813.31
2023-03-26T13:48:43.217Z,98820.75
2023-03-26T13:51:37.978Z,98817.69
2023-03-26T13:54:27.147Z,98814.63
2023-03-26T13:57:25.664Z,98808.97
2023-03-26T14:00:18.296Z,98821.78
2023-03-26T14:03:02.175Z,98822.50
2023-03-26T14:05:44.442Z,98828.06
2023-03-26T14:08:23.622Z,98816.09
2023-03-26T14:11:21.599Z,98817.78
2023-03-26T14:14:23.684Z,98817.19
2023-03-26T14:17:27.341Z,98820.84
2023-03-26T14:20:24.598Z,98819.94
2023-03-26T14:23:25.706Z,98815.34
2023-03-26T14:26:15.871Z,98816.59
2023-03-26T14:29:12.797Z,98814.09
2023-03-26T14:31:45.537Z,98808.09
2023-03-26T14:35:01.234Z,98805.88
2023-03-26T14:37:46.520Z,98802.38
2023-03-26T14:40:58.725Z,98810.50
2023-03-26T14:44:47.666Z,98799.16
2023-03-26T14:47:21.821Z,98799.56
2023-03-26T14:50:26.744Z,98789.94
2023-03-26T14:53:01.310Z,98791.25
2023-03-26T14:56:08.438Z,98795.31
2023-03-26T14:59:38.650Z,98784.06
2023-03-26T15:05:57.408Z,98765.69
2023-03-26T15:09:15.803Z,98781.31
2023-03-26T15:12:25.780Z,98786.13
2023-03-26T15:15:26.067Z,98780.38
2023-03-26T15:18:27.806Z,98784.16
2023-03-26T15:21:51.224Z,98778.72
2023-03-26T15:24:27.635Z,98790.44
2023-03-26T15:27:36.696Z,98789.28
2023-03-26T15:30:55.064Z,98786.19
2023-03-26T15:34:07.482Z,98789.66
2023-03-26T15:37:02.364Z,98786.53
2023-03-26T15:39:59.762Z,98781.53
2023-03-26T15:43:01.543Z,98788.16
2023-03-26T15:45:53.797Z,98778.84
2023-03-26T15:48:54.634Z,98782.44
2023-03-26T15:52:08.454Z,98782.50
2023-03-26T15:55:10.561Z,98784.69
2023-03-26T15:57:47.496Z,98789.59
2023-03-26T16:00:25.593Z,98788.69
2023-03-26T16:03:26.504Z,98780.75
2023-03-26T16:06:18.882Z,98787.69
2023-03-26T16:09:24.401Z,98787.63
2023-03-26T16:12:00.978Z,98790.88
2023-03-26T16:15:05.798Z,98784.56
2023-03-26T16:18:19.108Z,98786.31
2023-03-26T16:21:32.082Z,98789.63
2023-03-26T16:24:03.065Z,98795.63
2023-03-26T16:27:11.983Z,98804.31
2023-03-26T16:30:26.478Z,98795.47
2023-03-26T16:33:04.279Z,98795.16
2023-03-26T16:36:03.806Z,98786.56
2023-03-26T16:39:14.741Z,98775.03
2023-03-26T16:41:50.983Z,98774.22
2023-03-26T16:44:40.603Z,98773.56
2023-03-26T16:47:47.032Z,98777.22
2023-03-26T16:50:52.214Z,98772.50
2023-03-26T16:53:41.798Z,98773.25
2023-03-26T16:56:22.402Z,98784.03
2023-03-26T16:58:57.421Z,98777.69
2023-03-26T17:01:46.531Z,98783.84
2023-03-26T17:04:23.566Z,98789.25
2023-03-26T17:07:14.256Z,98788.56
2023-03-26T17:10:01.139Z,98801.44
2023-03-26T17:12:43.023Z,98805.66
2023-03-26T17:15:34.436Z,98805.25
2023-03-26T17:18:13.689Z,98817.78
2023-03-26T17:21:02.052Z,98816.66
2023-03-26T17:24:15.228Z,98822.34
2023-03-26T17:27:12.442Z,98820.44
2023-03-26T17:30:23.230Z,98837.91
2023-03-26T17:33:06.072Z,98834.47
2023-03-26T17:35:49.129Z,98841.72
2023-03-26T17:38:16.732Z,98845.44
2023-03-26T17:40:55.864Z,98839.38
2023-03-26T17:43:47.483Z,98850.19
2023-03-26T17:46:39.635Z,98855.13
2023-03-26T17:49:13.941Z,98854.72
2023-03-26T17:51:53.060Z,98862.28
2023-03-26T17:54:49.444Z,98860.41
2023-03-26T17:57:45.857Z,98865.72
2023-03-26T18:00:24.428Z,98870.44
2023-03-26T18:03:24.240Z,98871.47
2023-03-26T18:05:56.593Z,98873.16
2023-03-26T18:09:17.241Z,98889.72
2023-03-26T18:12:30.062Z,98887.34
2023-03-26T18:15:22.413Z,98900.47
2023-03-26T18:18:25.379Z,98897.75
2023-03-26T18:20:57.290Z,98892.38
2023-03-26T18:23:44.098Z,98892.09
2023-03-26T18:26:37.502Z,98890.72
2023-03-26T18:29:36.244Z,98886.28
2023-03-26T18:32:13.365Z,98889.53
2023-03-26T18:34:50.174Z,98891.44
2023-03-26T18:37:37.076Z,98884.91
2023-03-26T18:40:16.035Z,98890.28
2023-03-26T18:42:59.141Z,98886.69
2023-03-26T18:45:36.917Z,98887.16
2023-03-26T18:48:22.879Z,98896.13
2023-03-26T18:51:26.124Z,98899.97
2023-03-26T18:53:59.982Z,98894.69
2023-03-26T18:56:42.511Z,98897.84
2023-03-26T18:59:41.454Z,98887.00
2023-03-26T19:02:36.430Z,98878.53
2023-03-26T19:05:05.738Z,98887.09
2023-03-26T19:07:36.731Z,98889.00
2023-03-26T19:10:08.191Z,98899.72
2023-03-26T19:12:38.777Z,98894.16
2023-03-26T19:15:18.941Z,98900.69
2023-03-26T19:17:56.022Z,98892.84
2023-03-26T19:21:03.639Z,98891.22
2023-03-26T19:23:37.099Z,98897.72
2023-03-26T19:26:16.146Z,98889.25
2023-03-26T19:29:30.637Z,98885.06
2023-03-26T19:32:29.436Z,98896.50
2023-03-26T19:35:10.008Z,98885.47
2023-03-26T19:37:57.106Z,98887.47
2023-03-26T19:40:32.268Z,98884.06
2023-03-26T19:43:05.146Z,98879.88
2023-03-26T19:45:36.501Z,98883.53
2023-03-26T19:48:45.414Z,98877.06
2023-03-26T19:51:23.333Z,98873.72
2023-03-26T19:54:01.148Z,98882.66
2023-03-26T19:56:30.538Z,98876.09
2023-03-26T19:58:59.913Z,98880.78
2023-03-26T20:01:35.672Z,98874.41
2023-03-26T20:04:06.956Z,98866.50
2023-03-26T20:06:43.742Z,98875.94
2023-03-26T20:09:13.827Z,98873.41
2023-03-26T20:11:41.941Z,98880.47
2023-03-26T20:14:26.445Z,98878.72
2023-03-26T20:16:54.681Z,98881.94
2023-03-26T20:19:23.077Z,98875.72
2023-03-26T20:21:56.895Z,98878.34
2023-03-26T20:24:27.379Z,98873.94
2023-03-26T20:26:56.042Z,98865.72
2023-03-26T20:29:23.724Z,98869.03
2023-03-26T20:31:51.319Z,98873.34
2023-03-26T20:34:25.609Z,98864.84
2023-03-26T20:37:01.396Z,98862.06
2023-03-26T20:39:30.104Z,98865.88
2023-03-26T20:41:58.954Z,98860.09
2023-03-26T20:44:28.258Z,98864.28
2023-03-26T20:46:57.341Z,98853.09
2023-03-26T20:49:25.084Z,98852.25
2023-03-26T20:51:52.776Z,98853.88
2023-03-26T20:54:25.238Z,98849.69
2023-03-26T20:56:54.719Z,98844.31
2023-03-26T20:59:29.554Z,98848.31
2023-03-26T21:01:59.486Z,98843.88
2023-03-26T21:04:29.917Z,98840.09
2023-03-26T21:07:07.001Z,98845.50
2023-03-26T21:09:39.884Z,98843.47
2023-03-26T21:12:43.357Z,98839.31
2023-03-26T21:15:22.514Z,98836.47
2023-03-26T21:17:53.098Z,98839.03
2023-03-26T21:20:24.974Z,98827.75
2023-03-26T21:23:23.182Z,98827.94
2023-03-26T21:26:17.987Z,98828.16
2023-03-26T21:28:49.882Z,98821.41
2023-03-26T21:31:24.645Z,98824.13
2023-03-26T21:33:52.731Z,98829.72
2023-03-26T21:36:21.330Z,98822.59
2023-03-26T21:38:50.546Z,98827.53
2023-03-26T21:41:23.637Z,98823.47
2023-03-26T21:43:52.041Z,98819.22
2023-03-26T21:46:19.994Z,98824.25
2023-03-26T21:48:47.899Z,98827.97
2023-03-26T21:51:19.553Z,98824.47
2023-03-26T21:53:48.997Z,98816.81
2023-03-26T21:56:41.872Z,98816.25
2023-03-26T21:59:27.073Z,98813.50
2023-03-26T22:02:11.432Z,98803.97
2023-03-26T22:05:22.789Z,98798.41
2023-03-26T22:07:57.425Z,98797.72
2023-03-26T22:10:27.039Z,98803.81
2023-03-26T22:12:54.834Z,98794.53
2023-03-26T22:15:22.673Z,98799.88
2023-03-26T22:17:54.147Z,98795.44
2023-03-26T22:20:25.299Z,98791.72
2023-03-26T22:22:53.514Z,98797.28
2023-03-26T22:25:23.244Z,98790.13
2023-03-26T22:27:52.845Z,98786.88
2023-03-26T22:30:22.049Z,98779.13
2023-03-26T22:32:50.345Z,98777.16
2023-03-26T22:35:18.128Z,98771.91
2023-03-26T22:37:46.141Z,98763.94
2023-03-26T22:40:13.837Z,98770.28
2023-03-26T22:42:41.904Z,98765.03
2023-03-26T22:45:11.535Z,98767.78
2023-03-26T22:47:40.460Z,98763.19
2023-03-26T22:50:09.612Z,98762.78
2023-03-26T22:52:38.981Z,98756.19
2023-03-26T22:55:07.973Z,98761.91
2023-03-26T22:57:35.509Z,98752.91
2023-03-26T23:00:22.150Z,98759.28
2023-03-26T23:02:49.993Z,98758.84
2023-03-26T23:05:18.296Z,98753.91
2023-03-26T23:07:46.673Z,98747.00
2023-03-26T23:10:16.565Z,98745.16
2023-03-26T23:12:44.004Z,98735.75
2023-03-26T23:15:12.005Z,98729.72
2023-03-26T23:17:39.819Z,98721.63
2023-03-26T23:20:15.513Z,98714.19
2023-03-26T23:22:44.107Z,98707.19
2023-03-26T23:25:12.666Z,98701.09
2023-03-26T23:27:41.484Z,98696.06
2023-03-26T23:30:10.937Z,98700.63
2023-03-26T23:32:38.757Z,98697.59
2023-03-26T23:35:07.098Z,98701.41
2023-03-26T23:37:35.997Z,98693.44
2023-03-26T23:40:10.287Z,98704.69
2023-03-26T23:42:38.567Z,98698.81
2023-03-26T23:45:09.009Z,98703.81
2023-03-26T23:47:37.392Z,98690.81
2023-03-26T23:50:06.661Z,98695.84
2023-03-26T23:52:34.157Z,98690.84
2023-03-26T23:55:02.113Z,98695.38
2023-03-26T23:57:30.577Z,98689.06
2023-03-26T23:59:58.459Z,98690.09
